sensor_id;sensor_type;location;lat;lon;timestamp;temperature;humidity
43995;DHT22;51687;52.160;5.298;2023-05-10T00:01:09;18.30;69.00
43995;DHT22;51687;52.160;5.298;2023-05-10T00:03:36;18.30;69.00
43995;DHT22;51687;52.160;5.298;2023-05-10T00:06:03;18.30;69.00
43995;DHT22;51687;52.160;5.298;2023-05-10T00:08:29;18.30;69.00
43995;DHT22;51687;52.160;5.298;2023-05-10T00:10:56;18.30;68.90
43995;DHT22;51687;52.160;5.298;2023-05-10T00:13:23;18.30;68.90
43995;DHT22;51687;52.160;5.298;2023-05-10T00:15:50;18.30;69.50
43995;DHT22;51687;52.160;5.298;2023-05-10T00:18:17;18.30;68.90
43995;DHT22;51687;52.160;5.298;2023-05-10T00:20:43;18.30;68.80
43995;DHT22;51687;52.160;5.298;2023-05-10T00:23:12;18.30;68.90
43995;DHT22;51687;52.160;5.298;2023-05-10T00:25:39;18.30;68.90
43995;DHT22;51687;52.160;5.298;2023-05-10T00:28:06;18.30;68.90
43995;DHT22;51687;52.160;5.298;2023-05-10T00:30:33;18.30;68.80
43995;DHT22;51687;52.160;5.298;2023-05-10T00:32:59;18.20;68.80
43995;DHT22;51687;52.160;5.298;2023-05-10T00:35:26;18.20;68.80
43995;DHT22;51687;52.160;5.298;2023-05-10T00:37:53;18.30;68.80
43995;DHT22;51687;52.160;5.298;2023-05-10T00:40:20;18.20;68.80
43995;DHT22;51687;52.160;5.298;2023-05-10T00:42:47;18.20;68.80
43995;DHT22;51687;52.160;5.298;2023-05-10T00:45:13;18.20;68.70
43995;DHT22;51687;52.160;5.298;2023-05-10T00:47:40;18.30;68.80
43995;DHT22;51687;52.160;5.298;2023-05-10T00:50:07;18.20;68.60
43995;DHT22;51687;52.160;5.298;2023-05-10T00:52:35;18.30;69.30
43995;DHT22;51687;52.160;5.298;2023-05-10T00:55:01;18.30;68.60
43995;DHT22;51687;52.160;5.298;2023-05-10T00:57:29;18.30;68.70
43995;DHT22;51687;52.160;5.298;2023-05-10T00:59:56;18.20;68.60
43995;DHT22;51687;52.160;5.298;2023-05-10T01:02:24;18.20;68.60
43995;DHT22;51687;52.160;5.298;2023-05-10T01:04:51;18.20;68.60
43995;DHT22;51687;52.160;5.298;2023-05-10T01:07:19;18.20;68.60
43995;DHT22;51687;52.160;5.298;2023-05-10T01:09:46;18.30;68.70
43995;DHT22;51687;52.160;5.298;2023-05-10T01:12:12;18.30;68.60
43995;DHT22;51687;52.160;5.298;2023-05-10T01:14:39;18.20;68.50
43995;DHT22;51687;52.160;5.298;2023-05-10T01:17:06;18.30;68.60
43995;DHT22;51687;52.160;5.298;2023-05-10T01:19:34;18.30;68.60
43995;DHT22;51687;52.160;5.298;2023-05-10T01:33:01;18.20;68.50
43995;DHT22;51687;52.160;5.298;2023-05-10T01:35:39;18.20;68.50
43995;DHT22;51687;52.160;5.298;2023-05-10T01:38:13;18.20;68.40
43995;DHT22;51687;52.160;5.298;2023-05-10T01:43:10;18.20;68.40
43995;DHT22;51687;52.160;5.298;2023-05-10T01:45:41;18.20;68.50
43995;DHT22;51687;52.160;5.298;2023-05-10T01:48:15;18.20;68.40
43995;DHT22;51687;52.160;5.298;2023-05-10T01:50:43;18.20;68.50
43995;DHT22;51687;52.160;5.298;2023-05-10T01:53:10;18.20;68.50
43995;DHT22;51687;52.160;5.298;2023-05-10T01:55:56;18.20;68.50
43995;DHT22;51687;52.160;5.298;2023-05-10T01:58:24;18.20;68.50
43995;DHT22;51687;52.160;5.298;2023-05-10T02:00:53;18.20;68.50
43995;DHT22;51687;52.160;5.298;2023-05-10T02:03:20;18.20;68.50
43995;DHT22;51687;52.160;5.298;2023-05-10T02:05:48;18.20;68.50
43995;DHT22;51687;52.160;5.298;2023-05-10T02:08:15;18.20;68.50
43995;DHT22;51687;52.160;5.298;2023-05-10T02:10:44;18.20;68.50
43995;DHT22;51687;52.160;5.298;2023-05-10T02:13:11;18.20;68.50
43995;DHT22;51687;52.160;5.298;2023-05-10T02:15:39;18.20;68.60
43995;DHT22;51687;52.160;5.298;2023-05-10T02:18:06;18.20;68.60
43995;DHT22;51687;52.160;5.298;2023-05-10T02:20:33;18.10;68.60
43995;DHT22;51687;52.160;5.298;2023-05-10T02:23:01;18.20;68.60
43995;DHT22;51687;52.160;5.298;2023-05-10T02:25:29;18.20;68.60
43995;DHT22;51687;52.160;5.298;2023-05-10T02:27:56;18.20;68.60
43995;DHT22;51687;52.160;5.298;2023-05-10T02:30:24;18.20;68.60
43995;DHT22;51687;52.160;5.298;2023-05-10T02:32:51;18.20;68.60
43995;DHT22;51687;52.160;5.298;2023-05-10T02:35:18;18.20;68.50
43995;DHT22;51687;52.160;5.298;2023-05-10T02:37:45;18.30;68.30
43995;DHT22;51687;52.160;5.298;2023-05-10T02:40:12;18.30;68.30
43995;DHT22;51687;52.160;5.298;2023-05-10T02:42:40;18.30;68.20
43995;DHT22;51687;52.160;5.298;2023-05-10T02:45:09;18.20;68.10
43995;DHT22;51687;52.160;5.298;2023-05-10T02:47:37;18.20;68.10
43995;DHT22;51687;52.160;5.298;2023-05-10T02:50:04;18.20;67.90
43995;DHT22;51687;52.160;5.298;2023-05-10T02:52:35;18.10;68.00
43995;DHT22;51687;52.160;5.298;2023-05-10T02:55:03;18.10;68.10
43995;DHT22;51687;52.160;5.298;2023-05-10T02:57:32;18.10;68.10
43995;DHT22;51687;52.160;5.298;2023-05-10T03:00:00;18.10;68.10
43995;DHT22;51687;52.160;5.298;2023-05-10T03:02:28;18.10;68.00
43995;DHT22;51687;52.160;5.298;2023-05-10T03:04:58;18.10;68.10
43995;DHT22;51687;52.160;5.298;2023-05-10T03:09:52;18.10;68.10
43995;DHT22;51687;52.160;5.298;2023-05-10T03:12:27;18.10;68.10
43995;DHT22;51687;52.160;5.298;2023-05-10T03:15:03;18.10;68.10
43995;DHT22;51687;52.160;5.298;2023-05-10T03:20:11;18.10;68.20
43995;DHT22;51687;52.160;5.298;2023-05-10T03:22:56;18.10;68.10
43995;DHT22;51687;52.160;5.298;2023-05-10T03:25:26;18.10;68.10
43995;DHT22;51687;52.160;5.298;2023-05-10T03:27:54;18.10;68.10
43995;DHT22;51687;52.160;5.298;2023-05-10T03:30:21;18.00;68.00
43995;DHT22;51687;52.160;5.298;2023-05-10T03:32:48;18.00;68.10
43995;DHT22;51687;52.160;5.298;2023-05-10T03:35:15;18.00;68.10
43995;DHT22;51687;52.160;5.298;2023-05-10T03:37:42;18.00;68.10
43995;DHT22;51687;52.160;5.298;2023-05-10T03:40:08;18.00;68.20
43995;DHT22;51687;52.160;5.298;2023-05-10T03:42:35;18.00;68.10
43995;DHT22;51687;52.160;5.298;2023-05-10T03:45:02;18.10;68.10
43995;DHT22;51687;52.160;5.298;2023-05-10T03:47:29;18.10;68.10
43995;DHT22;51687;52.160;5.298;2023-05-10T03:49:56;18.10;68.10
43995;DHT22;51687;52.160;5.298;2023-05-10T03:52:22;18.10;68.10
43995;DHT22;51687;52.160;5.298;2023-05-10T03:54:49;18.10;68.00
43995;DHT22;51687;52.160;5.298;2023-05-10T03:57:16;18.10;68.00
43995;DHT22;51687;52.160;5.298;2023-05-10T03:59:42;18.10;68.00
43995;DHT22;51687;52.160;5.298;2023-05-10T04:02:09;18.10;68.00
43995;DHT22;51687;52.160;5.298;2023-05-10T04:04:35;18.10;68.00
43995;DHT22;51687;52.160;5.298;2023-05-10T04:07:02;18.10;68.00
43995;DHT22;51687;52.160;5.298;2023-05-10T04:09:29;18.00;68.00
43995;DHT22;51687;52.160;5.298;2023-05-10T04:11:56;18.00;68.00
43995;DHT22;51687;52.160;5.298;2023-05-10T04:14:22;18.00;68.00
43995;DHT22;51687;52.160;5.298;2023-05-10T04:16:49;18.00;68.00
43995;DHT22;51687;52.160;5.298;2023-05-10T04:19:16;18.00;68.10
43995;DHT22;51687;52.160;5.298;2023-05-10T04:21:42;18.00;68.10
43995;DHT22;51687;52.160;5.298;2023-05-10T04:24:09;18.00;68.10
43995;DHT22;51687;52.160;5.298;2023-05-10T04:26:35;18.00;68.10
43995;DHT22;51687;52.160;5.298;2023-05-10T04:29:03;18.00;68.10
43995;DHT22;51687;52.160;5.298;2023-05-10T04:31:30;18.00;68.10
43995;DHT22;51687;52.160;5.298;2023-05-10T04:33:56;18.00;68.10
43995;DHT22;51687;52.160;5.298;2023-05-10T04:36:23;18.00;68.10
43995;DHT22;51687;52.160;5.298;2023-05-10T04:38:50;18.00;68.10
43995;DHT22;51687;52.160;5.298;2023-05-10T04:41:16;18.00;68.10
43995;DHT22;51687;52.160;5.298;2023-05-10T04:43:43;18.00;68.10
43995;DHT22;51687;52.160;5.298;2023-05-10T04:46:10;18.00;68.10
43995;DHT22;51687;52.160;5.298;2023-05-10T04:48:36;18.00;68.10
43995;DHT22;51687;52.160;5.298;2023-05-10T04:51:03;18.00;68.10
43995;DHT22;51687;52.160;5.298;2023-05-10T04:53:30;18.00;68.00
43995;DHT22;51687;52.160;5.298;2023-05-10T04:55:57;18.00;68.00
43995;DHT22;51687;52.160;5.298;2023-05-10T04:58:23;18.00;68.00
43995;DHT22;51687;52.160;5.298;2023-05-10T05:00:50;18.00;68.50
43995;DHT22;51687;52.160;5.298;2023-05-10T05:03:19;18.00;68.00
43995;DHT22;51687;52.160;5.298;2023-05-10T05:05:46;18.10;68.00
43995;DHT22;51687;52.160;5.298;2023-05-10T05:08:12;18.10;68.00
43995;DHT22;51687;52.160;5.298;2023-05-10T05:10:39;18.00;68.00
43995;DHT22;51687;52.160;5.298;2023-05-10T05:13:06;18.00;68.00
43995;DHT22;51687;52.160;5.298;2023-05-10T05:15:32;18.00;68.60
43995;DHT22;51687;52.160;5.298;2023-05-10T05:18:00;18.00;68.00
43995;DHT22;51687;52.160;5.298;2023-05-10T05:20:27;18.00;68.20
43995;DHT22;51687;52.160;5.298;2023-05-10T05:22:53;18.00;68.00
43995;DHT22;51687;52.160;5.298;2023-05-10T05:25:20;18.00;68.00
43995;DHT22;51687;52.160;5.298;2023-05-10T05:27:47;18.00;68.00
43995;DHT22;51687;52.160;5.298;2023-05-10T05:30:14;18.10;68.10
43995;DHT22;51687;52.160;5.298;2023-05-10T05:32:41;18.00;68.70
43995;DHT22;51687;52.160;5.298;2023-05-10T05:35:07;18.00;68.10
43995;DHT22;51687;52.160;5.298;2023-05-10T05:37:34;18.10;68.10
43995;DHT22;51687;52.160;5.298;2023-05-10T05:40:01;18.10;68.10
43995;DHT22;51687;52.160;5.298;2023-05-10T05:42:28;18.10;68.00
43995;DHT22;51687;52.160;5.298;2023-05-10T05:44:54;18.10;67.90
43995;DHT22;51687;52.160;5.298;2023-05-10T05:47:21;18.10;67.80
43995;DHT22;51687;52.160;5.298;2023-05-10T05:49:48;18.00;67.80
43995;DHT22;51687;52.160;5.298;2023-05-10T05:52:14;18.00;67.80
43995;DHT22;51687;52.160;5.298;2023-05-10T05:54:41;18.00;67.80
43995;DHT22;51687;52.160;5.298;2023-05-10T05:57:08;18.00;67.60
43995;DHT22;51687;52.160;5.298;2023-05-10T05:59:35;18.10;68.00
43995;DHT22;51687;52.160;5.298;2023-05-10T06:02:02;18.10;68.20
43995;DHT22;51687;52.160;5.298;2023-05-10T06:04:28;18.20;68.10
43995;DHT22;51687;52.160;5.298;2023-05-10T06:06:55;18.20;68.20
43995;DHT22;51687;52.160;5.298;2023-05-10T06:09:22;18.30;68.30
43995;DHT22;51687;52.160;5.298;2023-05-10T06:11:50;18.40;68.30
43995;DHT22;51687;52.160;5.298;2023-05-10T06:14:17;18.40;68.00
43995;DHT22;51687;52.160;5.298;2023-05-10T06:17:53;18.50;67.00
43995;DHT22;51687;52.160;5.298;2023-05-10T06:20:19;18.60;66.80
43995;DHT22;51687;52.160;5.298;2023-05-10T06:22:46;18.60;66.00
43995;DHT22;51687;52.160;5.298;2023-05-10T06:25:13;18.60;65.50
43995;DHT22;51687;52.160;5.298;2023-05-10T06:27:41;18.70;65.70
43995;DHT22;51687;52.160;5.298;2023-05-10T06:30:08;18.70;65.60
43995;DHT22;51687;52.160;5.298;2023-05-10T06:32:39;18.70;65.30
43995;DHT22;51687;52.160;5.298;2023-05-10T06:35:06;18.70;64.90
43995;DHT22;51687;52.160;5.298;2023-05-10T06:37:34;18.70;65.10
43995;DHT22;51687;52.160;5.298;2023-05-10T06:40:01;18.80;65.40
43995;DHT22;51687;52.160;5.298;2023-05-10T06:42:28;18.80;65.10
43995;DHT22;51687;52.160;5.298;2023-05-10T06:44:55;18.80;64.90
43995;DHT22;51687;52.160;5.298;2023-05-10T06:47:22;18.80;64.50
43995;DHT22;51687;52.160;5.298;2023-05-10T06:49:49;18.90;64.20
43995;DHT22;51687;52.160;5.298;2023-05-10T06:52:15;18.80;63.90
43995;DHT22;51687;52.160;5.298;2023-05-10T06:54:42;18.80;63.80
43995;DHT22;51687;52.160;5.298;2023-05-10T06:57:09;18.90;64.20
43995;DHT22;51687;52.160;5.298;2023-05-10T06:59:55;18.90;64.30
43995;DHT22;51687;52.160;5.298;2023-05-10T07:02:23;18.90;64.20
43995;DHT22;51687;52.160;5.298;2023-05-10T07:04:50;18.90;64.10
43995;DHT22;51687;52.160;5.298;2023-05-10T07:07:18;18.90;64.00
43995;DHT22;51687;52.160;5.298;2023-05-10T07:09:46;19.00;63.90
43995;DHT22;51687;52.160;5.298;2023-05-10T07:12:12;19.00;63.90
43995;DHT22;51687;52.160;5.298;2023-05-10T07:14:41;19.00;64.10
43995;DHT22;51687;52.160;5.298;2023-05-10T07:17:08;19.00;63.90
43995;DHT22;51687;52.160;5.298;2023-05-10T07:19:35;19.00;64.30
43995;DHT22;51687;52.160;5.298;2023-05-10T07:22:02;19.00;64.20
43995;DHT22;51687;52.160;5.298;2023-05-10T07:24:29;19.00;64.30
43995;DHT22;51687;52.160;5.298;2023-05-10T07:26:57;19.00;63.80
43995;DHT22;51687;52.160;5.298;2023-05-10T07:29:24;19.00;63.40
43995;DHT22;51687;52.160;5.298;2023-05-10T07:31:51;19.00;63.80
43995;DHT22;51687;52.160;5.298;2023-05-10T07:34:18;19.00;63.50
43995;DHT22;51687;52.160;5.298;2023-05-10T07:36:45;19.00;62.90
43995;DHT22;51687;52.160;5.298;2023-05-10T07:39:12;19.00;62.90
43995;DHT22;51687;52.160;5.298;2023-05-10T07:41:51;19.00;63.30
43995;DHT22;51687;52.160;5.298;2023-05-10T07:44:18;19.00;63.30
43995;DHT22;51687;52.160;5.298;2023-05-10T07:46:47;19.00;63.50
43995;DHT22;51687;52.160;5.298;2023-05-10T07:49:14;19.00;63.60
43995;DHT22;51687;52.160;5.298;2023-05-10T07:51:41;19.00;63.70
43995;DHT22;51687;52.160;5.298;2023-05-10T07:54:09;19.00;63.40
43995;DHT22;51687;52.160;5.298;2023-05-10T07:56:35;19.00;63.60
43995;DHT22;51687;52.160;5.298;2023-05-10T07:59:03;19.00;63.30
43995;DHT22;51687;52.160;5.298;2023-05-10T08:01:31;19.00;63.30
43995;DHT22;51687;52.160;5.298;2023-05-10T08:04:00;19.00;63.30
43995;DHT22;51687;52.160;5.298;2023-05-10T08:06:28;19.00;63.70
43995;DHT22;51687;52.160;5.298;2023-05-10T08:08:56;19.10;63.90
43995;DHT22;51687;52.160;5.298;2023-05-10T08:11:23;19.00;63.50
43995;DHT22;51687;52.160;5.298;2023-05-10T08:13:50;18.90;63.50
43995;DHT22;51687;52.160;5.298;2023-05-10T08:16:17;18.90;64.00
43995;DHT22;51687;52.160;5.298;2023-05-10T08:18:45;18.80;63.90
43995;DHT22;51687;52.160;5.298;2023-05-10T08:21:14;18.70;64.20
43995;DHT22;51687;52.160;5.298;2023-05-10T08:23:42;18.60;64.70
43995;DHT22;51687;52.160;5.298;2023-05-10T08:26:10;18.50;64.60
43995;DHT22;51687;52.160;5.298;2023-05-10T08:28:37;18.50;64.60
43995;DHT22;51687;52.160;5.298;2023-05-10T08:31:04;18.40;64.80
43995;DHT22;51687;52.160;5.298;2023-05-10T08:33:31;18.40;65.20
43995;DHT22;51687;52.160;5.298;2023-05-10T08:35:58;18.30;65.60
43995;DHT22;51687;52.160;5.298;2023-05-10T08:38:25;18.30;66.00
43995;DHT22;51687;52.160;5.298;2023-05-10T08:40:54;18.20;66.40
43995;DHT22;51687;52.160;5.298;2023-05-10T08:43:28;18.20;65.80
43995;DHT22;51687;52.160;5.298;2023-05-10T08:46:00;18.10;66.30
43995;DHT22;51687;52.160;5.298;2023-05-10T08:48:33;18.10;66.30
43995;DHT22;51687;52.160;5.298;2023-05-10T08:51:02;18.10;66.30
43995;DHT22;51687;52.160;5.298;2023-05-10T08:53:31;18.00;66.70
43995;DHT22;51687;52.160;5.298;2023-05-10T08:56:02;18.00;67.70
43995;DHT22;51687;52.160;5.298;2023-05-10T08:58:29;18.00;67.70
43995;DHT22;51687;52.160;5.298;2023-05-10T09:00:58;18.00;67.40
43995;DHT22;51687;52.160;5.298;2023-05-10T09:08:23;18.00;66.30
43995;DHT22;51687;52.160;5.298;2023-05-10T09:10:53;17.90;67.80
43995;DHT22;51687;52.160;5.298;2023-05-10T09:13:22;17.90;67.80
43995;DHT22;51687;52.160;5.298;2023-05-10T09:15:49;17.80;68.60
43995;DHT22;51687;52.160;5.298;2023-05-10T09:18:17;17.80;68.80
43995;DHT22;51687;52.160;5.298;2023-05-10T09:20:44;17.80;69.00
43995;DHT22;51687;52.160;5.298;2023-05-10T09:23:12;17.90;69.30
43995;DHT22;51687;52.160;5.298;2023-05-10T09:25:41;17.90;69.00
43995;DHT22;51687;52.160;5.298;2023-05-10T09:28:09;17.90;68.60
43995;DHT22;51687;52.160;5.298;2023-05-10T09:30:36;17.90;67.00
43995;DHT22;51687;52.160;5.298;2023-05-10T09:33:03;17.90;66.40
43995;DHT22;51687;52.160;5.298;2023-05-10T09:35:32;17.80;66.60
43995;DHT22;51687;52.160;5.298;2023-05-10T09:38:03;17.90;68.20
43995;DHT22;51687;52.160;5.298;2023-05-10T09:40:31;17.90;68.60
43995;DHT22;51687;52.160;5.298;2023-05-10T09:43:01;17.90;68.50
43995;DHT22;51687;52.160;5.298;2023-05-10T09:45:30;17.90;69.20
43995;DHT22;51687;52.160;5.298;2023-05-10T09:47:58;17.90;68.90
43995;DHT22;51687;52.160;5.298;2023-05-10T09:50:26;17.90;68.70
43995;DHT22;51687;52.160;5.298;2023-05-10T09:52:56;17.90;68.00
43995;DHT22;51687;52.160;5.298;2023-05-10T09:55:43;17.90;68.30
43995;DHT22;51687;52.160;5.298;2023-05-10T09:58:15;18.00;69.30
43995;DHT22;51687;52.160;5.298;2023-05-10T10:00:44;18.00;68.90
43995;DHT22;51687;52.160;5.298;2023-05-10T10:03:15;18.00;68.50
43995;DHT22;51687;52.160;5.298;2023-05-10T10:05:43;18.00;68.40
43995;DHT22;51687;52.160;5.298;2023-05-10T10:08:11;18.00;68.00
43995;DHT22;51687;52.160;5.298;2023-05-10T10:10:40;18.00;68.00
43995;DHT22;51687;52.160;5.298;2023-05-10T10:13:08;17.90;67.70
43995;DHT22;51687;52.160;5.298;2023-05-10T10:15:35;17.90;68.10
43995;DHT22;51687;52.160;5.298;2023-05-10T10:18:02;18.00;68.00
43995;DHT22;51687;52.160;5.298;2023-05-10T10:20:31;18.00;68.20
43995;DHT22;51687;52.160;5.298;2023-05-10T10:22:57;18.00;68.00
43995;DHT22;51687;52.160;5.298;2023-05-10T10:25:24;18.00;68.80
43995;DHT22;51687;52.160;5.298;2023-05-10T10:30:43;18.10;68.60
43995;DHT22;51687;52.160;5.298;2023-05-10T10:33:28;18.10;68.10
43995;DHT22;51687;52.160;5.298;2023-05-10T10:36:02;18.10;67.10
43995;DHT22;51687;52.160;5.298;2023-05-10T10:41:34;18.00;67.40
43995;DHT22;51687;52.160;5.298;2023-05-10T10:49:48;18.00;67.80
43995;DHT22;51687;52.160;5.298;2023-05-10T10:52:30;18.10;67.20
43995;DHT22;51687;52.160;5.298;2023-05-10T11:03:11;18.20;67.80
43995;DHT22;51687;52.160;5.298;2023-05-10T11:05:42;18.20;68.00
43995;DHT22;51687;52.160;5.298;2023-05-10T11:08:12;18.20;68.60
43995;DHT22;51687;52.160;5.298;2023-05-10T11:10:48;18.30;69.00
43995;DHT22;51687;52.160;5.298;2023-05-10T11:13:15;18.30;68.30
43995;DHT22;51687;52.160;5.298;2023-05-10T11:15:48;18.30;69.20
43995;DHT22;51687;52.160;5.298;2023-05-10T11:18:23;18.30;68.20
43995;DHT22;51687;52.160;5.298;2023-05-10T11:20:51;18.30;68.50
43995;DHT22;51687;52.160;5.298;2023-05-10T11:23:21;18.30;68.00
43995;DHT22;51687;52.160;5.298;2023-05-10T11:25:48;18.30;67.40
43995;DHT22;51687;52.160;5.298;2023-05-10T11:28:19;18.30;67.90
43995;DHT22;51687;52.160;5.298;2023-05-10T11:30:46;18.30;67.30
43995;DHT22;51687;52.160;5.298;2023-05-10T11:33:17;18.20;66.90
43995;DHT22;51687;52.160;5.298;2023-05-10T11:35:44;18.20;67.50
43995;DHT22;51687;52.160;5.298;2023-05-10T11:38:12;18.20;67.20
43995;DHT22;51687;52.160;5.298;2023-05-10T11:40:40;18.20;67.30
43995;DHT22;51687;52.160;5.298;2023-05-10T11:43:09;18.20;68.80
43995;DHT22;51687;52.160;5.298;2023-05-10T11:45:38;18.20;68.30
43995;DHT22;51687;52.160;5.298;2023-05-10T11:48:06;18.30;68.50
43995;DHT22;51687;52.160;5.298;2023-05-10T11:50:33;18.30;67.90
43995;DHT22;51687;52.160;5.298;2023-05-10T11:53:00;18.30;66.80
43995;DHT22;51687;52.160;5.298;2023-05-10T11:55:27;18.30;67.00
43995;DHT22;51687;52.160;5.298;2023-05-10T11:58:00;18.30;67.00
43995;DHT22;51687;52.160;5.298;2023-05-10T12:00:27;18.30;67.30
43995;DHT22;51687;52.160;5.298;2023-05-10T12:02:55;18.40;67.60
43995;DHT22;51687;52.160;5.298;2023-05-10T12:05:22;18.40;67.40
43995;DHT22;51687;52.160;5.298;2023-05-10T12:07:49;18.40;67.60
43995;DHT22;51687;52.160;5.298;2023-05-10T12:10:15;18.50;67.50
43995;DHT22;51687;52.160;5.298;2023-05-10T12:12:46;18.50;67.10
43995;DHT22;51687;52.160;5.298;2023-05-10T12:15:19;18.50;67.70
43995;DHT22;51687;52.160;5.298;2023-05-10T12:17:47;18.50;67.50
43995;DHT22;51687;52.160;5.298;2023-05-10T12:20:17;18.60;68.40
43995;DHT22;51687;52.160;5.298;2023-05-10T12:25:13;18.60;67.30
43995;DHT22;51687;52.160;5.298;2023-05-10T12:27:40;18.60;66.70
43995;DHT22;51687;52.160;5.298;2023-05-10T12:30:08;18.70;66.40
43995;DHT22;51687;52.160;5.298;2023-05-10T12:32:39;18.70;65.00
43995;DHT22;51687;52.160;5.298;2023-05-10T12:35:06;18.70;66.80
43995;DHT22;51687;52.160;5.298;2023-05-10T12:37:33;18.70;66.40
43995;DHT22;51687;52.160;5.298;2023-05-10T12:40:02;18.70;67.70
43995;DHT22;51687;52.160;5.298;2023-05-10T12:42:31;18.80;67.40
43995;DHT22;51687;52.160;5.298;2023-05-10T12:44:58;18.80;66.20
43995;DHT22;51687;52.160;5.298;2023-05-10T12:47:25;18.80;66.30
43995;DHT22;51687;52.160;5.298;2023-05-10T12:49:52;18.80;65.00
43995;DHT22;51687;52.160;5.298;2023-05-10T12:52:19;18.80;63.90
43995;DHT22;51687;52.160;5.298;2023-05-10T12:54:47;18.90;65.10
43995;DHT22;51687;52.160;5.298;2023-05-10T12:57:14;18.90;65.30
43995;DHT22;51687;52.160;5.298;2023-05-10T12:59:41;18.90;64.50
43995;DHT22;51687;52.160;5.298;2023-05-10T13:02:08;18.90;63.70
43995;DHT22;51687;52.160;5.298;2023-05-10T13:04:35;18.90;63.40
43995;DHT22;51687;52.160;5.298;2023-05-10T13:07:06;18.90;64.10
43995;DHT22;51687;52.160;5.298;2023-05-10T13:09:33;18.90;65.00
43995;DHT22;51687;52.160;5.298;2023-05-10T13:12:00;18.90;65.10
43995;DHT22;51687;52.160;5.298;2023-05-10T13:14:27;18.80;65.50
43995;DHT22;51687;52.160;5.298;2023-05-10T13:16:55;18.90;65.10
43995;DHT22;51687;52.160;5.298;2023-05-10T13:19:22;18.80;64.70
43995;DHT22;51687;52.160;5.298;2023-05-10T13:21:48;18.70;65.00
43995;DHT22;51687;52.160;5.298;2023-05-10T13:24:15;18.70;65.30
43995;DHT22;51687;52.160;5.298;2023-05-10T13:26:43;18.70;65.20
43995;DHT22;51687;52.160;5.298;2023-05-10T13:29:10;18.70;65.30
43995;DHT22;51687;52.160;5.298;2023-05-10T13:31:37;18.70;65.50
43995;DHT22;51687;52.160;5.298;2023-05-10T13:34:04;18.70;65.50
43995;DHT22;51687;52.160;5.298;2023-05-10T13:36:31;18.70;65.50
43995;DHT22;51687;52.160;5.298;2023-05-10T13:38:58;18.80;66.10
43995;DHT22;51687;52.160;5.298;2023-05-10T13:41:25;18.80;66.70
43995;DHT22;51687;52.160;5.298;2023-05-10T13:43:51;18.80;66.90
43995;DHT22;51687;52.160;5.298;2023-05-10T13:46:20;18.80;67.00
43995;DHT22;51687;52.160;5.298;2023-05-10T13:48:47;18.80;67.30
43995;DHT22;51687;52.160;5.298;2023-05-10T13:51:13;18.80;67.70
43995;DHT22;51687;52.160;5.298;2023-05-10T13:53:40;18.80;67.70
43995;DHT22;51687;52.160;5.298;2023-05-10T13:56:07;18.80;67.50
43995;DHT22;51687;52.160;5.298;2023-05-10T13:58:34;18.80;68.00
43995;DHT22;51687;52.160;5.298;2023-05-10T14:01:02;18.80;68.20
43995;DHT22;51687;52.160;5.298;2023-05-10T14:03:30;18.90;68.60
43995;DHT22;51687;52.160;5.298;2023-05-10T14:05:57;18.90;68.70
43995;DHT22;51687;52.160;5.298;2023-05-10T14:08:24;18.90;68.40
43995;DHT22;51687;52.160;5.298;2023-05-10T14:10:53;18.90;68.20
43995;DHT22;51687;52.160;5.298;2023-05-10T14:13:20;18.90;68.10
43995;DHT22;51687;52.160;5.298;2023-05-10T14:15:46;18.90;67.90
43995;DHT22;51687;52.160;5.298;2023-05-10T14:18:13;18.80;68.30
43995;DHT22;51687;52.160;5.298;2023-05-10T14:20:40;18.80;68.50
43995;DHT22;51687;52.160;5.298;2023-05-10T14:23:07;18.90;68.30
43995;DHT22;51687;52.160;5.298;2023-05-10T14:25:37;18.90;68.70
43995;DHT22;51687;52.160;5.298;2023-05-10T14:28:04;18.90;68.80
43995;DHT22;51687;52.160;5.298;2023-05-10T14:30:31;18.90;68.60
43995;DHT22;51687;52.160;5.298;2023-05-10T14:33:02;18.80;67.90
43995;DHT22;51687;52.160;5.298;2023-05-10T14:35:29;18.80;68.10
43995;DHT22;51687;52.160;5.298;2023-05-10T14:37:57;18.80;68.10
43995;DHT22;51687;52.160;5.298;2023-05-10T14:40:25;18.80;68.60
43995;DHT22;51687;52.160;5.298;2023-05-10T14:42:52;18.80;68.80
43995;DHT22;51687;52.160;5.298;2023-05-10T14:45:20;18.80;68.80
43995;DHT22;51687;52.160;5.298;2023-05-10T14:47:47;18.80;68.60
43995;DHT22;51687;52.160;5.298;2023-05-10T14:50:14;18.80;69.00
43995;DHT22;51687;52.160;5.298;2023-05-10T14:53:00;18.80;69.80
43995;DHT22;51687;52.160;5.298;2023-05-10T14:55:27;18.80;68.90
43995;DHT22;51687;52.160;5.298;2023-05-10T14:57:53;18.80;69.20
43995;DHT22;51687;52.160;5.298;2023-05-10T15:00:21;18.80;69.80
43995;DHT22;51687;52.160;5.298;2023-05-10T15:02:48;18.80;70.30
43995;DHT22;51687;52.160;5.298;2023-05-10T15:05:16;18.90;70.10
43995;DHT22;51687;52.160;5.298;2023-05-10T15:07:43;18.90;69.90
43995;DHT22;51687;52.160;5.298;2023-05-10T15:10:10;18.90;69.70
43995;DHT22;51687;52.160;5.298;2023-05-10T15:12:38;18.90;69.60
43995;DHT22;51687;52.160;5.298;2023-05-10T15:15:05;18.90;70.30
43995;DHT22;51687;52.160;5.298;2023-05-10T15:17:33;18.90;70.60
43995;DHT22;51687;52.160;5.298;2023-05-10T15:20:01;18.90;70.60
43995;DHT22;51687;52.160;5.298;2023-05-10T15:22:32;18.90;70.30
43995;DHT22;51687;52.160;5.298;2023-05-10T15:25:00;18.90;70.30
43995;DHT22;51687;52.160;5.298;2023-05-10T15:27:26;18.90;69.60
43995;DHT22;51687;52.160;5.298;2023-05-10T15:29:53;18.90;68.60
43995;DHT22;51687;52.160;5.298;2023-05-10T15:32:20;18.90;69.00
43995;DHT22;51687;52.160;5.298;2023-05-10T15:34:47;18.90;69.40
43995;DHT22;51687;52.160;5.298;2023-05-10T15:37:14;18.90;70.50
43995;DHT22;51687;52.160;5.298;2023-05-10T15:39:41;18.90;69.50
43995;DHT22;51687;52.160;5.298;2023-05-10T15:42:08;18.90;69.60
43995;DHT22;51687;52.160;5.298;2023-05-10T15:44:34;18.90;69.30
43995;DHT22;51687;52.160;5.298;2023-05-10T15:47:01;18.90;69.00
43995;DHT22;51687;52.160;5.298;2023-05-10T15:49:29;18.90;68.50
43995;DHT22;51687;52.160;5.298;2023-05-10T15:51:56;18.90;68.60
43995;DHT22;51687;52.160;5.298;2023-05-10T15:54:22;18.90;68.90
43995;DHT22;51687;52.160;5.298;2023-05-10T15:56:49;18.90;69.40
43995;DHT22;51687;52.160;5.298;2023-05-10T15:59:16;18.90;69.50
43995;DHT22;51687;52.160;5.298;2023-05-10T16:01:43;18.90;69.40
43995;DHT22;51687;52.160;5.298;2023-05-10T16:04:10;18.80;69.40
43995;DHT22;51687;52.160;5.298;2023-05-10T16:06:36;18.80;69.50
43995;DHT22;51687;52.160;5.298;2023-05-10T16:09:03;18.80;69.00
43995;DHT22;51687;52.160;5.298;2023-05-10T16:11:30;18.80;68.10
43995;DHT22;51687;52.160;5.298;2023-05-10T16:13:57;18.80;69.00
43995;DHT22;51687;52.160;5.298;2023-05-10T16:16:23;18.80;69.50
43995;DHT22;51687;52.160;5.298;2023-05-10T16:18:51;18.80;68.60
43995;DHT22;51687;52.160;5.298;2023-05-10T16:21:18;18.80;67.90